Orlando, Florida
Traffic Map
Current Weather Conditions
Orlando, Florida
Broken Clouds Thunderstorm
Broken Clouds
29°
Feels Like: 32°
Wind Chill: 29° Ceiling: 4800
Heat Index: 32° Visibility: 10mi
Dew Point: 22° Wind: 32mph
Humidity: 67% Direction: 230° (SW)
Pressure: 29.99in Gusts: 39mph
Raw Report DataKORL 311722Z 23028G34KT 10SM VCTS SCT038 BKN048 BKN080 29/22 A2999 RMK AO2 PK WND 23034/1722 T02890222
Traffic Incident Summary
Active as of:
Severity:
Category:
InformationThere was an issue retrieving the traffic information for this location. Please try a different location or try again shortly.
Advertisements
Track Severe Weather on mobile